sensor_id;sensor_type;location;lat;lon;timestamp;pressure;altitude;pressure_sealevel;temperature;humidity
73171;BME280;61381;50.118;19.962;2022-08-16T00:00:44;97877.72;;;17.18;100.00
73171;BME280;61381;50.118;19.962;2022-08-16T00:05:45;97884.31;;;17.33;100.00
73171;BME280;61381;50.118;19.962;2022-08-16T00:10:46;97878.25;;;17.24;100.00
73171;BME280;61381;50.118;19.962;2022-08-16T00:15:47;97867.41;;;16.96;100.00
73171;BME280;61381;50.118;19.962;2022-08-16T00:20:48;97879.00;;;16.84;100.00
73171;BME280;61381;50.118;19.962;2022-08-16T00:25:49;97871.94;;;16.67;100.00
73171;BME280;61381;50.118;19.962;2022-08-16T00:30:50;97871.69;;;16.59;100.00
73171;BME280;61381;50.118;19.962;2022-08-16T00:35:50;97885.44;;;16.67;100.00
73171;BME280;61381;50.118;19.962;2022-08-16T00:40:52;97880.97;;;16.58;100.00
73171;BME280;61381;50.118;19.962;2022-08-16T00:51:21;97883.09;;;16.53;100.00
73171;BME280;61381;50.118;19.962;2022-08-16T00:56:27;97891.41;;;16.85;100.00
73171;BME280;61381;50.118;19.962;2022-08-16T01:01:29;97883.97;;;17.06;100.00
73171;BME280;61381;50.118;19.962;2022-08-16T01:06:30;97889.34;;;17.19;100.00
73171;BME280;61381;50.118;19.962;2022-08-16T01:11:32;97886.72;;;17.22;100.00
73171;BME280;61381;50.118;19.962;2022-08-16T01:16:33;97893.00;;;17.39;100.00
73171;BME280;61381;50.118;19.962;2022-08-16T01:21:40;97883.09;;;17.31;100.00
73171;BME280;61381;50.118;19.962;2022-08-16T01:26:44;97888.84;;;16.88;100.00
73171;BME280;61381;50.118;19.962;2022-08-16T01:31:46;97887.91;;;16.59;100.00
73171;BME280;61381;50.118;19.962;2022-08-16T01:36:46;97892.66;;;16.63;100.00
73171;BME280;61381;50.118;19.962;2022-08-16T01:41:47;97889.94;;;16.63;100.00
73171;BME280;61381;50.118;19.962;2022-08-16T01:46:48;97887.38;;;16.54;100.00
73171;BME280;61381;50.118;19.962;2022-08-16T01:51:53;97880.28;;;16.49;100.00
73171;BME280;61381;50.118;19.962;2022-08-16T01:56:55;97877.31;;;16.91;100.00
73171;BME280;61381;50.118;19.962;2022-08-16T02:01:56;97884.31;;;17.05;100.00
73171;BME280;61381;50.118;19.962;2022-08-16T02:06:58;97879.31;;;17.07;100.00
73171;BME280;61381;50.118;19.962;2022-08-16T02:11:59;97875.72;;;17.15;100.00
73171;BME280;61381;50.118;19.962;2022-08-16T02:17:02;97885.16;;;17.21;100.00
73171;BME280;61381;50.118;19.962;2022-08-16T02:22:04;97880.53;;;17.22;100.00
73171;BME280;61381;50.118;19.962;2022-08-16T02:27:05;97888.56;;;16.81;100.00
73171;BME280;61381;50.118;19.962;2022-08-16T02:32:08;97889.97;;;16.50;100.00
73171;BME280;61381;50.118;19.962;2022-08-16T02:37:09;97889.28;;;16.29;100.00
73171;BME280;61381;50.118;19.962;2022-08-16T02:42:10;97887.69;;;16.15;100.00
73171;BME280;61381;50.118;19.962;2022-08-16T02:47:11;97883.16;;;16.07;100.00
73171;BME280;61381;50.118;19.962;2022-08-16T02:52:11;97886.41;;;15.88;100.00
73171;BME280;61381;50.118;19.962;2022-08-16T02:57:12;97878.41;;;15.92;100.00
73171;BME280;61381;50.118;19.962;2022-08-16T03:02:13;97885.25;;;15.89;100.00
73171;BME280;61381;50.118;19.962;2022-08-16T03:07:13;97876.47;;;15.80;100.00
73171;BME280;61381;50.118;19.962;2022-08-16T03:12:14;97878.16;;;15.84;100.00
73171;BME280;61381;50.118;19.962;2022-08-16T03:17:15;97890.03;;;15.71;100.00
73171;BME280;61381;50.118;19.962;2022-08-16T03:22:17;97885.25;;;15.56;100.00
73171;BME280;61381;50.118;19.962;2022-08-16T03:27:18;97880.69;;;15.35;100.00
73171;BME280;61381;50.118;19.962;2022-08-16T03:32:19;97880.94;;;15.42;100.00
73171;BME280;61381;50.118;19.962;2022-08-16T03:37:19;97885.78;;;15.49;100.00
73171;BME280;61381;50.118;19.962;2022-08-16T03:42:20;97898.56;;;15.40;100.00
73171;BME280;61381;50.118;19.962;2022-08-16T03:47:20;97902.66;;;15.25;100.00
73171;BME280;61381;50.118;19.962;2022-08-16T03:52:22;97915.56;;;15.19;100.00
73171;BME280;61381;50.118;19.962;2022-08-16T03:57:22;97908.06;;;15.25;100.00
73171;BME280;61381;50.118;19.962;2022-08-16T04:02:23;97909.91;;;15.33;100.00
73171;BME280;61381;50.118;19.962;2022-08-16T04:07:24;97916.63;;;15.27;100.00
73171;BME280;61381;50.118;19.962;2022-08-16T04:12:25;97916.09;;;15.33;100.00
73171;BME280;61381;50.118;19.962;2022-08-16T04:17:26;97921.22;;;15.47;100.00
73171;BME280;61381;50.118;19.962;2022-08-16T04:22:26;97928.00;;;15.54;100.00
73171;BME280;61381;50.118;19.962;2022-08-16T04:27:27;97924.31;;;15.58;100.00
73171;BME280;61381;50.118;19.962;2022-08-16T04:32:27;97924.22;;;15.67;100.00
73171;BME280;61381;50.118;19.962;2022-08-16T04:37:28;97921.75;;;15.74;100.00
73171;BME280;61381;50.118;19.962;2022-08-16T04:42:29;97920.38;;;15.89;100.00
73171;BME280;61381;50.118;19.962;2022-08-16T04:47:29;97926.63;;;16.02;100.00
73171;BME280;61381;50.118;19.962;2022-08-16T04:52:30;97923.38;;;16.21;100.00
73171;BME280;61381;50.118;19.962;2022-08-16T04:57:30;97934.31;;;16.37;100.00
73171;BME280;61381;50.118;19.962;2022-08-16T05:02:31;97940.88;;;16.85;100.00
73171;BME280;61381;50.118;19.962;2022-08-16T05:07:32;97937.03;;;17.23;100.00
73171;BME280;61381;50.118;19.962;2022-08-16T05:12:33;97938.94;;;17.63;98.60
73171;BME280;61381;50.118;19.962;2022-08-16T05:17:34;97938.69;;;18.41;94.74
73171;BME280;61381;50.118;19.962;2022-08-16T05:22:36;97933.50;;;18.68;90.41
73171;BME280;61381;50.118;19.962;2022-08-16T05:27:38;97937.44;;;19.02;89.76
73171;BME280;61381;50.118;19.962;2022-08-16T05:32:40;97933.53;;;19.19;87.74
73171;BME280;61381;50.118;19.962;2022-08-16T05:37:41;97939.69;;;19.55;85.94
73171;BME280;61381;50.118;19.962;2022-08-16T05:42:42;97938.22;;;19.77;84.57
73171;BME280;61381;50.118;19.962;2022-08-16T05:47:43;97942.06;;;19.96;84.41
73171;BME280;61381;50.118;19.962;2022-08-16T05:52:44;97943.78;;;20.51;82.04
73171;BME280;61381;50.118;19.962;2022-08-16T05:57:47;97949.66;;;21.02;79.61
73171;BME280;61381;50.118;19.962;2022-08-16T06:02:48;97942.34;;;21.37;78.24
73171;BME280;61381;50.118;19.962;2022-08-16T06:07:50;97940.91;;;21.47;78.10
73171;BME280;61381;50.118;19.962;2022-08-16T06:12:51;97941.41;;;21.52;77.65
73171;BME280;61381;50.118;19.962;2022-08-16T06:17:52;97957.28;;;20.66;81.60
73171;BME280;61381;50.118;19.962;2022-08-16T06:22:54;97969.84;;;20.28;83.69
73171;BME280;61381;50.118;19.962;2022-08-16T06:27:55;97967.97;;;20.09;86.33
73171;BME280;61381;50.118;19.962;2022-08-16T06:32:56;97968.88;;;20.17;86.47
73171;BME280;61381;50.118;19.962;2022-08-16T06:37:56;97980.25;;;20.92;83.27
73171;BME280;61381;50.118;19.962;2022-08-16T06:42:58;97986.38;;;21.69;79.70
73171;BME280;61381;50.118;19.962;2022-08-16T06:47:59;97976.81;;;22.20;77.71
73171;BME280;61381;50.118;19.962;2022-08-16T06:53:00;98001.50;;;23.17;74.32
73171;BME280;61381;50.118;19.962;2022-08-16T06:58:01;97994.53;;;22.34;76.59
73171;BME280;61381;50.118;19.962;2022-08-16T07:03:02;97987.47;;;23.26;73.32
73171;BME280;61381;50.118;19.962;2022-08-16T07:08:03;97998.28;;;23.08;73.79
73171;BME280;61381;50.118;19.962;2022-08-16T07:13:04;98003.47;;;23.97;70.33
73171;BME280;61381;50.118;19.962;2022-08-16T07:18:04;98011.72;;;24.12;70.60
73171;BME280;61381;50.118;19.962;2022-08-16T07:23:05;98019.09;;;25.88;63.92
73171;BME280;61381;50.118;19.962;2022-08-16T07:28:06;98011.66;;;25.99;63.20
73171;BME280;61381;50.118;19.962;2022-08-16T07:33:07;98010.09;;;26.61;60.99
73171;BME280;61381;50.118;19.962;2022-08-16T07:38:08;98004.59;;;25.91;63.40
73171;BME280;61381;50.118;19.962;2022-08-16T07:43:08;98002.69;;;25.80;63.26
73171;BME280;61381;50.118;19.962;2022-08-16T07:48:09;98006.75;;;26.32;61.86
73171;BME280;61381;50.118;19.962;2022-08-16T07:53:11;98001.03;;;27.17;58.72
73171;BME280;61381;50.118;19.962;2022-08-16T07:58:12;98007.31;;;27.55;58.00
73171;BME280;61381;50.118;19.962;2022-08-16T08:03:13;98003.19;;;27.36;58.57
73171;BME280;61381;50.118;19.962;2022-08-16T08:08:13;98011.78;;;26.48;60.74
73171;BME280;61381;50.118;19.962;2022-08-16T08:13:14;98007.28;;;27.17;58.16
73171;BME280;61381;50.118;19.962;2022-08-16T08:18:14;98014.16;;;27.78;57.06
73171;BME280;61381;50.118;19.962;2022-08-16T08:23:15;98015.97;;;25.93;61.24
73171;BME280;61381;50.118;19.962;2022-08-16T08:28:16;98011.44;;;26.39;60.82
73171;BME280;61381;50.118;19.962;2022-08-16T08:33:17;98005.97;;;26.31;60.65
73171;BME280;61381;50.118;19.962;2022-08-16T08:38:36;98010.53;;;25.75;62.87
73171;BME280;61381;50.118;19.962;2022-08-16T08:43:36;98015.16;;;26.07;62.17
73171;BME280;61381;50.118;19.962;2022-08-16T08:48:37;98006.22;;;27.04;59.59
73171;BME280;61381;50.118;19.962;2022-08-16T08:53:38;98020.50;;;26.92;59.37
73171;BME280;61381;50.118;19.962;2022-08-16T08:58:39;98019.97;;;27.08;58.94
73171;BME280;61381;50.118;19.962;2022-08-16T09:03:40;98023.19;;;26.99;59.10
73171;BME280;61381;50.118;19.962;2022-08-16T09:08:40;98026.03;;;28.06;56.34
73171;BME280;61381;50.118;19.962;2022-08-16T09:13:41;98029.84;;;28.43;55.63
73171;BME280;61381;50.118;19.962;2022-08-16T09:18:42;98027.19;;;29.38;52.93
73171;BME280;61381;50.118;19.962;2022-08-16T09:23:43;98021.00;;;29.06;54.85
73171;BME280;61381;50.118;19.962;2022-08-16T09:28:44;98020.28;;;29.90;51.38
73171;BME280;61381;50.118;19.962;2022-08-16T09:33:45;98021.50;;;29.45;52.67
73171;BME280;61381;50.118;19.962;2022-08-16T09:38:45;98019.06;;;29.91;51.22
73171;BME280;61381;50.118;19.962;2022-08-16T09:43:46;98019.69;;;30.35;49.60
73171;BME280;61381;50.118;19.962;2022-08-16T09:48:46;98009.22;;;30.63;48.58
73171;BME280;61381;50.118;19.962;2022-08-16T09:53:48;98009.53;;;31.30;46.72
73171;BME280;61381;50.118;19.962;2022-08-16T09:58:49;97996.97;;;30.27;49.06
73171;BME280;61381;50.118;19.962;2022-08-16T10:03:51;98000.56;;;30.08;48.49
73171;BME280;61381;50.118;19.962;2022-08-16T10:08:52;98002.75;;;30.69;45.75
73171;BME280;61381;50.118;19.962;2022-08-16T10:13:53;98009.56;;;30.98;44.90
73171;BME280;61381;50.118;19.962;2022-08-16T10:18:53;98014.69;;;30.30;45.31
73171;BME280;61381;50.118;19.962;2022-08-16T10:23:54;98027.16;;;29.14;47.18
73171;BME280;61381;50.118;19.962;2022-08-16T10:28:55;98024.66;;;30.07;46.72
73171;BME280;61381;50.118;19.962;2022-08-16T10:33:55;98020.00;;;30.40;46.78
73171;BME280;61381;50.118;19.962;2022-08-16T10:38:56;98016.56;;;31.02;43.15
73171;BME280;61381;50.118;19.962;2022-08-16T10:43:56;98009.81;;;30.87;43.28
73171;BME280;61381;50.118;19.962;2022-08-16T10:48:57;98005.66;;;31.11;43.47
73171;BME280;61381;50.118;19.962;2022-08-16T10:53:58;98008.13;;;31.68;42.93
73171;BME280;61381;50.118;19.962;2022-08-16T10:58:58;97997.47;;;31.67;41.86
73171;BME280;61381;50.118;19.962;2022-08-16T11:03:59;97988.59;;;32.14;43.08
73171;BME280;61381;50.118;19.962;2022-08-16T11:09:00;97989.16;;;32.47;42.54
73171;BME280;61381;50.118;19.962;2022-08-16T11:14:00;97977.38;;;31.92;43.09
73171;BME280;61381;50.118;19.962;2022-08-16T11:19:02;97978.03;;;31.83;43.79
73171;BME280;61381;50.118;19.962;2022-08-16T11:24:03;97984.94;;;31.33;44.37
73171;BME280;61381;50.118;19.962;2022-08-16T11:29:04;97988.84;;;29.63;52.62
73171;BME280;61381;50.118;19.962;2022-08-16T11:34:05;97985.72;;;29.17;51.60
73171;BME280;61381;50.118;19.962;2022-08-16T11:39:05;97980.25;;;29.78;47.15
73171;BME280;61381;50.118;19.962;2022-08-16T11:44:06;97985.22;;;29.66;50.32
73171;BME280;61381;50.118;19.962;2022-08-16T11:49:07;97982.44;;;28.79;51.78
73171;BME280;61381;50.118;19.962;2022-08-16T11:54:09;97978.22;;;28.47;52.89
73171;BME280;61381;50.118;19.962;2022-08-16T11:59:10;97964.72;;;28.80;50.52
73171;BME280;61381;50.118;19.962;2022-08-16T12:04:11;97957.69;;;28.99;48.94
73171;BME280;61381;50.118;19.962;2022-08-16T12:09:12;97949.75;;;29.45;49.37
73171;BME280;61381;50.118;19.962;2022-08-16T12:14:13;97935.25;;;29.81;45.95
73171;BME280;61381;50.118;19.962;2022-08-16T12:19:13;97924.22;;;29.97;44.71
73171;BME280;61381;50.118;19.962;2022-08-16T12:24:14;97926.34;;;30.59;44.08
73171;BME280;61381;50.118;19.962;2022-08-16T12:29:15;97933.94;;;30.55;44.91
73171;BME280;61381;50.118;19.962;2022-08-16T12:34:15;97937.84;;;30.57;44.40
73171;BME280;61381;50.118;19.962;2022-08-16T12:39:16;97948.69;;;30.32;45.61
73171;BME280;61381;50.118;19.962;2022-08-16T12:44:16;97960.88;;;29.81;46.30
73171;BME280;61381;50.118;19.962;2022-08-16T12:49:17;97964.47;;;29.58;48.67
73171;BME280;61381;50.118;19.962;2022-08-16T12:54:18;97964.22;;;29.09;50.41
73171;BME280;61381;50.118;19.962;2022-08-16T12:59:19;97946.97;;;28.81;51.80
73171;BME280;61381;50.118;19.962;2022-08-16T13:04:20;97953.19;;;28.85;51.25
73171;BME280;61381;50.118;19.962;2022-08-16T13:09:21;97953.31;;;28.27;52.26
73171;BME280;61381;50.118;19.962;2022-08-16T13:14:22;97954.94;;;27.97;53.65
73171;BME280;61381;50.118;19.962;2022-08-16T13:19:23;97960.22;;;27.50;54.31
73171;BME280;61381;50.118;19.962;2022-08-16T13:24:23;97954.22;;;27.58;53.28
73171;BME280;61381;50.118;19.962;2022-08-16T13:29:24;97959.25;;;27.29;53.12
73171;BME280;61381;50.118;19.962;2022-08-16T13:34:24;97958.72;;;27.03;53.59
73171;BME280;61381;50.118;19.962;2022-08-16T13:39:25;97963.34;;;27.14;52.98
73171;BME280;61381;50.118;19.962;2022-08-16T13:44:25;97970.97;;;27.37;52.96
73171;BME280;61381;50.118;19.962;2022-08-16T13:49:26;97966.53;;;27.47;52.09
73171;BME280;61381;50.118;19.962;2022-08-16T13:54:27;97975.34;;;27.65;51.43
73171;BME280;61381;50.118;19.962;2022-08-16T13:59:27;97976.38;;;27.44;51.67
73171;BME280;61381;50.118;19.962;2022-08-16T14:04:31;97970.22;;;27.33;51.41
73171;BME280;61381;50.118;19.962;2022-08-16T14:09:32;97958.75;;;27.38;51.49
73171;BME280;61381;50.118;19.962;2022-08-16T14:14:34;97951.53;;;27.82;51.13
73171;BME280;61381;50.118;19.962;2022-08-16T14:19:34;97949.19;;;27.84;52.39
73171;BME280;61381;50.118;19.962;2022-08-16T14:24:35;97956.19;;;27.89;52.00
73171;BME280;61381;50.118;19.962;2022-08-16T14:29:36;97960.53;;;28.17;50.61
73171;BME280;61381;50.118;19.962;2022-08-16T14:34:37;97966.16;;;28.10;49.45
73171;BME280;61381;50.118;19.962;2022-08-16T14:39:38;97958.53;;;28.21;49.61
73171;BME280;61381;50.118;19.962;2022-08-16T14:44:39;97962.19;;;28.38;49.22
73171;BME280;61381;50.118;19.962;2022-08-16T14:49:40;97970.38;;;28.45;49.21
73171;BME280;61381;50.118;19.962;2022-08-16T14:54:42;97979.22;;;28.06;46.73
73171;BME280;61381;50.118;19.962;2022-08-16T14:59:43;97982.06;;;27.95;51.64
73171;BME280;61381;50.118;19.962;2022-08-16T15:04:44;97978.63;;;27.87;53.49
73171;BME280;61381;50.118;19.962;2022-08-16T15:09:45;97977.66;;;28.32;53.45
73171;BME280;61381;50.118;19.962;2022-08-16T15:14:48;97988.19;;;28.37;53.21
73171;BME280;61381;50.118;19.962;2022-08-16T15:19:50;97996.16;;;28.04;55.58
73171;BME280;61381;50.118;19.962;2022-08-16T15:24:51;97995.72;;;28.06;53.51
73171;BME280;61381;50.118;19.962;2022-08-16T15:29:52;97997.78;;;27.94;53.57
73171;BME280;61381;50.118;19.962;2022-08-16T15:34:54;97991.84;;;28.58;54.48
73171;BME280;61381;50.118;19.962;2022-08-16T15:39:55;97988.25;;;28.61;52.52
73171;BME280;61381;50.118;19.962;2022-08-16T15:44:56;97985.28;;;28.48;52.87
73171;BME280;61381;50.118;19.962;2022-08-16T15:49:56;98002.94;;;28.23;48.96
73171;BME280;61381;50.118;19.962;2022-08-16T15:55:00;97998.47;;;28.06;49.25
73171;BME280;61381;50.118;19.962;2022-08-16T16:00:04;98000.38;;;28.40;49.40
73171;BME280;61381;50.118;19.962;2022-08-16T16:05:09;97991.44;;;28.56;49.03
73171;BME280;61381;50.118;19.962;2022-08-16T16:10:10;97999.38;;;28.54;49.14
73171;BME280;61381;50.118;19.962;2022-08-16T16:15:11;98009.94;;;28.59;49.50
73171;BME280;61381;50.118;19.962;2022-08-16T16:20:13;98002.75;;;28.65;48.16
73171;BME280;61381;50.118;19.962;2022-08-16T16:25:14;98002.28;;;28.70;50.25
73171;BME280;61381;50.118;19.962;2022-08-16T16:30:14;98010.31;;;28.57;50.38
73171;BME280;61381;50.118;19.962;2022-08-16T16:35:15;98013.09;;;28.30;50.60
73171;BME280;61381;50.118;19.962;2022-08-16T16:40:16;98002.53;;;27.59;50.95
73171;BME280;61381;50.118;19.962;2022-08-16T16:45:18;98004.75;;;27.37;52.47
73171;BME280;61381;50.118;19.962;2022-08-16T16:50:19;98001.44;;;27.15;53.31
73171;BME280;61381;50.118;19.962;2022-08-16T16:55:20;98010.41;;;27.19;52.16
73171;BME280;61381;50.118;19.962;2022-08-16T17:00:21;98014.44;;;27.11;52.86
73171;BME280;61381;50.118;19.962;2022-08-16T17:05:24;98016.66;;;27.23;53.53
73171;BME280;61381;50.118;19.962;2022-08-16T17:10:26;98023.19;;;26.99;54.63
73171;BME280;61381;50.118;19.962;2022-08-16T17:15:27;98032.66;;;26.91;53.97
73171;BME280;61381;50.118;19.962;2022-08-16T17:20:28;98043.06;;;26.61;53.65
73171;BME280;61381;50.118;19.962;2022-08-16T17:25:29;98046.28;;;26.49;55.16
73171;BME280;61381;50.118;19.962;2022-08-16T17:30:30;98030.94;;;26.55;56.29
73171;BME280;61381;50.118;19.962;2022-08-16T17:35:32;98037.28;;;26.48;61.00
73171;BME280;61381;50.118;19.962;2022-08-16T17:40:45;98043.63;;;26.31;62.64
73171;BME280;61381;50.118;19.962;2022-08-16T17:45:46;98047.31;;;26.03;63.19
73171;BME280;61381;50.118;19.962;2022-08-16T17:50:47;98044.66;;;25.70;65.15
73171;BME280;61381;50.118;19.962;2022-08-16T17:55:48;98054.53;;;25.39;66.18
73171;BME280;61381;50.118;19.962;2022-08-16T18:00:51;98051.00;;;25.06;67.62
73171;BME280;61381;50.118;19.962;2022-08-16T18:05:52;98065.47;;;24.70;69.82
73171;BME280;61381;50.118;19.962;2022-08-16T18:10:53;98059.88;;;24.31;70.78
73171;BME280;61381;50.118;19.962;2022-08-16T18:15:54;98050.00;;;24.01;72.86
73171;BME280;61381;50.118;19.962;2022-08-16T18:20:54;98059.16;;;23.60;73.72
73171;BME280;61381;50.118;19.962;2022-08-16T18:25:57;98060.13;;;23.30;74.63
73171;BME280;61381;50.118;19.962;2022-08-16T18:30:58;98059.59;;;23.10;75.06
73171;BME280;61381;50.118;19.962;2022-08-16T18:35:59;98066.47;;;22.97;75.81
73171;BME280;61381;50.118;19.962;2022-08-16T18:41:02;98067.38;;;22.64;78.31
73171;BME280;61381;50.118;19.962;2022-08-16T18:46:02;98070.28;;;22.44;78.90
73171;BME280;61381;50.118;19.962;2022-08-16T18:51:03;98073.06;;;22.17;79.21
73171;BME280;61381;50.118;19.962;2022-08-16T18:56:04;98066.53;;;21.91;80.93
73171;BME280;61381;50.118;19.962;2022-08-16T19:01:04;98071.78;;;21.77;80.98
73171;BME280;61381;50.118;19.962;2022-08-16T19:06:08;98070.75;;;21.59;82.17
73171;BME280;61381;50.118;19.962;2022-08-16T19:11:14;98080.59;;;21.40;83.64
73171;BME280;61381;50.118;19.962;2022-08-16T19:16:15;98071.94;;;21.08;85.24
73171;BME280;61381;50.118;19.962;2022-08-16T19:21:16;98091.47;;;20.90;86.31
73171;BME280;61381;50.118;19.962;2022-08-16T19:26:18;98088.63;;;20.83;86.12
73171;BME280;61381;50.118;19.962;2022-08-16T19:31:24;98095.81;;;20.72;87.04
73171;BME280;61381;50.118;19.962;2022-08-16T19:36:34;98096.25;;;20.54;86.19
73171;BME280;61381;50.118;19.962;2022-08-16T19:41:38;98091.88;;;20.49;86.49
73171;BME280;61381;50.118;19.962;2022-08-16T19:46:39;98101.19;;;20.48;85.72
73171;BME280;61381;50.118;19.962;2022-08-16T19:51:39;98101.75;;;20.38;85.72
73171;BME280;61381;50.118;19.962;2022-08-16T19:56:40;98114.38;;;20.27;85.31
73171;BME280;61381;50.118;19.962;2022-08-16T20:01:42;98113.88;;;20.21;85.09
73171;BME280;61381;50.118;19.962;2022-08-16T20:06:43;98127.00;;;20.16;85.62
73171;BME280;61381;50.118;19.962;2022-08-16T20:11:44;98134.22;;;20.08;85.13
73171;BME280;61381;50.118;19.962;2022-08-16T20:16:45;98136.06;;;20.04;85.28
73171;BME280;61381;50.118;19.962;2022-08-16T20:21:45;98139.69;;;19.92;86.01
73171;BME280;61381;50.118;19.962;2022-08-16T20:26:46;98144.09;;;19.81;87.32
73171;BME280;61381;50.118;19.962;2022-08-16T20:31:47;98140.41;;;19.57;89.31
73171;BME280;61381;50.118;19.962;2022-08-16T20:36:47;98143.47;;;19.55;89.61
73171;BME280;61381;50.118;19.962;2022-08-16T20:41:48;98157.69;;;19.49;89.82
73171;BME280;61381;50.118;19.962;2022-08-16T20:46:48;98159.63;;;19.32;91.15
73171;BME280;61381;50.118;19.962;2022-08-16T20:51:49;98155.78;;;19.17;91.62
73171;BME280;61381;50.118;19.962;2022-08-16T20:56:50;98170.41;;;19.13;91.95
73171;BME280;61381;50.118;19.962;2022-08-16T21:01:50;98161.78;;;18.95;93.16
73171;BME280;61381;50.118;19.962;2022-08-16T21:06:51;98176.19;;;18.83;94.00
73171;BME280;61381;50.118;19.962;2022-08-16T21:11:53;98177.72;;;18.68;94.77
73171;BME280;61381;50.118;19.962;2022-08-16T21:16:54;98168.19;;;18.74;94.47
73171;BME280;61381;50.118;19.962;2022-08-16T21:21:55;98166.69;;;18.89;93.42
73171;BME280;61381;50.118;19.962;2022-08-16T21:26:56;98175.88;;;19.00;93.09
73171;BME280;61381;50.118;19.962;2022-08-16T21:32:03;98168.00;;;18.95;92.93
73171;BME280;61381;50.118;19.962;2022-08-16T21:37:04;98170.47;;;18.72;94.11
73171;BME280;61381;50.118;19.962;2022-08-16T21:42:11;98171.13;;;18.53;95.43
73171;BME280;61381;50.118;19.962;2022-08-16T21:47:12;98173.19;;;18.44;95.75
73171;BME280;61381;50.118;19.962;2022-08-16T21:52:13;98171.03;;;18.37;96.08
73171;BME280;61381;50.118;19.962;2022-08-16T21:57:13;98151.75;;;18.26;96.26
73171;BME280;61381;50.118;19.962;2022-08-16T22:02:15;98156.66;;;18.08;97.43
73171;BME280;61381;50.118;19.962;2022-08-16T22:07:16;98147.16;;;18.02;97.84
73171;BME280;61381;50.118;19.962;2022-08-16T22:12:22;98149.78;;;17.98;97.75
73171;BME280;61381;50.118;19.962;2022-08-16T22:17:23;98151.38;;;17.99;97.69
73171;BME280;61381;50.118;19.962;2022-08-16T22:22:24;98154.06;;;17.87;97.86
73171;BME280;61381;50.118;19.962;2022-08-16T22:27:24;98149.09;;;18.02;97.56
73171;BME280;61381;50.118;19.962;2022-08-16T22:32:25;98143.22;;;18.12;96.69
73171;BME280;61381;50.118;19.962;2022-08-16T22:37:26;98142.06;;;18.13;96.45
73171;BME280;61381;50.118;19.962;2022-08-16T22:42:27;98147.72;;;18.08;96.92
73171;BME280;61381;50.118;19.962;2022-08-16T22:47:27;98139.63;;;17.95;97.38
73171;BME280;61381;50.118;19.962;2022-08-16T22:52:28;98144.47;;;17.77;98.45
73171;BME280;61381;50.118;19.962;2022-08-16T22:57:28;98139.19;;;17.56;99.48
73171;BME280;61381;50.118;19.962;2022-08-16T23:02:29;98139.06;;;17.40;100.00
73171;BME280;61381;50.118;19.962;2022-08-16T23:07:29;98140.88;;;17.36;100.00
73171;BME280;61381;50.118;19.962;2022-08-16T23:12:30;98147.09;;;17.24;100.00
73171;BME280;61381;50.118;19.962;2022-08-16T23:17:30;98136.09;;;17.08;100.00
73171;BME280;61381;50.118;19.962;2022-08-16T23:22:47;98142.97;;;17.06;100.00
73171;BME280;61381;50.118;19.962;2022-08-16T23:27:48;98120.75;;;17.00;100.00
73171;BME280;61381;50.118;19.962;2022-08-16T23:32:52;98115.09;;;16.93;100.00
73171;BME280;61381;50.118;19.962;2022-08-16T23:37:53;98116.44;;;16.87;100.00
73171;BME280;61381;50.118;19.962;2022-08-16T23:47:58;98128.31;;;16.73;100.00
73171;BME280;61381;50.118;19.962;2022-08-16T23:53:13;98123.56;;;16.70;100.00
73171;BME280;61381;50.118;19.962;2022-08-16T23:58:16;98128.63;;;16.59;100.00
